Batavia, New York
Current Conditions -  °F | °C
As of 2:54 PM on Thursday 30 Oct 2014 (Local Time) from KROC Reporting Station
Overcast Overcast  
Wind Chill: 44°   Ceiling: 4800
Heat Index: 47°   Visibility: 10mi
Dew Point: 34°   Wind: 7mph
Humidity: 61%   Direction: 300°WNW
Pressure: 30.04"   Gusts: NA
Location:  43°N, 78.19°W
Report Text: KROC 301854Z 30006KT 10SM FEW034 OVC048 08/01 A3004 RMK AO2 SLP179 T00830011
Loading
Personal Weather Stations






























Interactive Weather Map
Tropical Storm Tracking
New forecast layout! Learn more

10-Day Weather Forecast

Advertisements
Track Severe Weather on mobile